createdAt,value
2017-09-19T00:01:56.801Z,"    0"
2017-09-19T00:06:52.609Z,"    0"
2017-09-19T00:11:48.487Z,"    0"
2017-09-19T00:16:45.787Z,"    0"
2017-09-19T00:21:41.360Z,"    0"
2017-09-19T00:26:38.119Z,"    0"
2017-09-19T00:31:33.874Z,"    0"
2017-09-19T00:36:30.381Z,"    0"
2017-09-19T00:41:25.894Z,"    0"
2017-09-19T00:46:23.755Z,"    0"
2017-09-19T00:51:19.074Z,"    0"
2017-09-19T00:56:15.148Z,"    0"
2017-09-19T01:01:10.783Z,"    0"
2017-09-19T01:06:06.594Z,"    0"
2017-09-19T01:11:02.409Z,"    0"
2017-09-19T01:15:58.334Z,"    0"
2017-09-19T01:20:54.544Z,"    0"
2017-09-19T01:25:50.455Z,"    0"
2017-09-19T01:30:47.022Z,"    0"
2017-09-19T01:35:42.918Z,"    0"
2017-09-19T01:40:38.578Z,"    0"
2017-09-19T01:45:34.307Z,"    0"
2017-09-19T01:50:30.224Z,"    0"
2017-09-19T01:55:26.158Z,"    0"
2017-09-19T02:00:21.989Z,"    0"
2017-09-19T02:05:18.762Z,"    0"
2017-09-19T02:10:15.439Z,"    0"
2017-09-19T02:15:10.866Z,"    0"
2017-09-19T02:20:06.687Z,"    0"
2017-09-19T02:25:02.252Z,"    0"
2017-09-19T02:29:58.184Z,"    0"
2017-09-19T02:34:54.167Z,"    0"
2017-09-19T02:39:49.944Z,"    0"
2017-09-19T02:44:46.474Z,"    0"
2017-09-19T02:49:42.174Z,"    0"
2017-09-19T02:54:38.803Z,"    0"
2017-09-19T02:59:34.443Z,"    0"
2017-09-19T03:04:30.119Z,"    0"
2017-09-19T03:09:26.197Z,"    0"
2017-09-19T03:14:21.959Z,"    0"
2017-09-19T03:19:17.735Z,"    0"
2017-09-19T03:24:14.471Z,"    0"
2017-09-19T03:29:10.974Z,"    0"
2017-09-19T03:34:06.462Z,"    0"
2017-09-19T03:39:03.831Z,"    0"
2017-09-19T03:43:59.629Z,"    0"
2017-09-19T03:48:55.064Z,"    0"
2017-09-19T03:53:50.958Z,"    0"
2017-09-19T03:58:46.917Z,"    0"
2017-09-19T04:03:42.780Z,"    0"
2017-09-19T04:08:38.707Z,"    0"
2017-09-19T04:13:34.475Z,"    0"
2017-09-19T04:18:33.072Z,"    0"
2017-09-19T04:23:28.184Z,"    0"
2017-09-19T04:28:23.915Z,"    0"
2017-09-19T04:33:20.977Z,"    0"
2017-09-19T04:38:16.463Z,"    0"
2017-09-19T04:43:13.398Z,"    0"
2017-09-19T04:48:10.125Z,"    4"
2017-09-19T04:53:06.450Z,"    4"
2017-09-19T04:58:02.837Z,"   16"
2017-09-19T05:02:58.486Z,"   28"
2017-09-19T05:07:54.350Z,"   40"
2017-09-19T05:12:51.246Z,"   68"
2017-09-19T05:17:46.789Z,"  128"
2017-09-19T05:22:42.488Z,"  196"
2017-09-19T05:27:38.752Z,"  304"
2017-09-19T05:32:34.637Z,"  364"
2017-09-19T05:37:30.410Z,"  500"
2017-09-19T05:42:26.486Z,"  568"
2017-09-19T05:47:22.503Z,"  592"
2017-09-19T05:52:18.505Z,"  688"
2017-09-19T05:57:14.114Z,"  552"
2017-09-19T06:02:11.379Z,"  468"
2017-09-19T06:07:06.852Z,"  516"
2017-09-19T06:12:04.754Z,"  616"
2017-09-19T06:17:00.144Z,"  728"
2017-09-19T06:21:56.245Z,"  548"
2017-09-19T06:26:52.114Z,"  812"
2017-09-19T06:31:50.067Z," 1192"
2017-09-19T06:36:46.688Z," 1708"
2017-09-19T06:41:42.349Z," 2840"
2017-09-19T06:46:38.501Z," 2320"
2017-09-19T06:51:34.230Z," 2260"
2017-09-19T06:56:31.150Z," 2288"
2017-09-19T07:01:26.825Z," 3380"
2017-09-19T07:06:23.121Z," 4552"
2017-09-19T07:11:20.201Z," 3840"
2017-09-19T07:16:16.134Z," 4816"
2017-09-19T07:21:12.521Z," 4980"
2017-09-19T07:26:08.784Z," 2980"
2017-09-19T07:31:05.494Z," 2664"
2017-09-19T07:36:00.864Z," 2616"
2017-09-19T07:40:57.150Z," 2328"
2017-09-19T07:45:53.359Z," 2696"
2017-09-19T07:50:50.367Z," 3300"
2017-09-19T07:55:46.404Z," 4004"
2017-09-19T08:00:43.107Z," 4908"
2017-09-19T08:05:39.330Z," 6292"
2017-09-19T08:10:36.782Z," 8048"
2017-09-19T08:15:33.202Z," 9264"
2017-09-19T08:20:29.446Z,11344
2017-09-19T08:25:25.871Z,10052
2017-09-19T08:30:22.750Z," 6792"
2017-09-19T08:35:18.279Z," 6572"
2017-09-19T08:40:15.389Z," 7128"
2017-09-19T08:45:11.000Z,11208
2017-09-19T08:50:07.904Z,10420
2017-09-19T08:55:03.731Z,12360
2017-09-19T09:00:00.141Z,12672
2017-09-19T09:04:57.400Z,10484
2017-09-19T09:09:54.139Z," 6252"
2017-09-19T09:14:50.659Z," 8800"
2017-09-19T09:19:46.087Z," 7240"
2017-09-19T09:24:41.986Z," 5900"
2017-09-19T09:29:37.613Z," 9192"
2017-09-19T09:34:33.939Z,10036
2017-09-19T09:39:30.518Z," 4844"
2017-09-19T09:44:25.803Z," 7228"
2017-09-19T09:49:21.705Z,11196
2017-09-19T09:54:17.632Z,14452
2017-09-19T09:59:13.925Z,14036
2017-09-19T10:04:11.364Z,11192
2017-09-19T10:09:08.032Z,13460
2017-09-19T10:14:04.690Z," 7236"
2017-09-19T10:18:59.896Z," 5096"
2017-09-19T10:23:55.295Z," 9268"
2017-09-19T10:28:51.660Z," 7340"
2017-09-19T10:33:47.721Z," 9308"
2017-09-19T10:38:44.048Z,11804
2017-09-19T10:43:41.798Z,17056
2017-09-19T10:48:39.071Z,18176
2017-09-19T10:53:36.087Z,19520
2017-09-19T10:58:32.715Z,15960
2017-09-19T11:03:28.529Z,14404
2017-09-19T11:08:24.829Z,24928
2017-09-19T11:13:21.882Z,39552
2017-09-19T11:18:18.590Z,23104
2017-09-19T11:23:14.583Z,51264
2017-09-19T11:28:11.854Z,11848
2017-09-19T11:33:07.241Z,14816
2017-09-19T11:38:03.401Z," 7412"
2017-09-19T11:42:58.634Z,10700
2017-09-19T11:47:55.250Z,32128
2017-09-19T11:52:50.740Z," 6528"
2017-09-19T11:57:46.148Z," 9264"
2017-09-19T12:02:41.975Z,16608
2017-09-19T12:07:38.506Z,14440
2017-09-19T12:12:35.472Z," 5800"
2017-09-19T12:17:30.371Z," 3448"
2017-09-19T12:22:27.314Z," 4980"
2017-09-19T12:27:23.662Z,10200
2017-09-19T12:32:19.457Z,10440
2017-09-19T12:37:15.459Z," 4880"
2017-09-19T12:42:11.136Z," 5600"
2017-09-19T12:47:09.502Z," 8188"
2017-09-19T12:52:06.920Z," 9916"
2017-09-19T12:57:04.610Z," 9536"
2017-09-19T13:02:01.834Z," 9260"
2017-09-19T13:06:58.851Z," 9652"
2017-09-19T13:11:55.456Z," 8516"
2017-09-19T13:16:51.685Z," 8064"
2017-09-19T13:21:47.570Z," 5816"
2017-09-19T13:26:44.634Z," 5812"
2017-09-19T13:31:41.426Z," 8912"
2017-09-19T13:36:38.103Z," 6724"
2017-09-19T13:41:33.851Z," 8648"
2017-09-19T13:46:29.791Z," 6884"
2017-09-19T13:51:25.469Z," 4180"
2017-09-19T13:56:21.304Z," 5272"
2017-09-19T14:01:16.923Z," 6988"
2017-09-19T14:06:13.750Z," 4992"
2017-09-19T14:11:09.203Z," 5844"
2017-09-19T14:16:05.201Z," 6536"
2017-09-19T14:21:01.115Z," 6144"
2017-09-19T14:25:58.026Z," 5832"
2017-09-19T14:30:54.497Z," 5228"
2017-09-19T14:35:50.828Z," 4872"
2017-09-19T14:40:46.350Z," 4476"
2017-09-19T14:45:43.301Z," 4520"
2017-09-19T14:50:38.612Z," 4828"
2017-09-19T14:55:34.513Z," 4964"
2017-09-19T15:00:30.353Z," 4896"
2017-09-19T15:05:27.023Z," 4664"
2017-09-19T15:10:23.821Z," 4340"
2017-09-19T15:15:20.473Z," 4496"
2017-09-19T15:20:16.394Z," 4420"
2017-09-19T15:25:13.281Z," 3944"
2017-09-19T15:30:09.419Z," 3168"
2017-09-19T15:35:05.085Z," 2768"
2017-09-19T15:40:00.891Z," 2512"
2017-09-19T15:44:57.697Z," 2516"
2017-09-19T15:49:53.836Z," 2300"
2017-09-19T15:54:50.955Z," 2308"
2017-09-19T15:59:46.460Z," 2200"
2017-09-19T16:04:43.176Z," 2000"
2017-09-19T16:09:39.223Z," 1964"
2017-09-19T16:14:35.275Z," 1860"
2017-09-19T16:19:30.937Z," 1760"
2017-09-19T16:24:27.432Z," 1640"
2017-09-19T16:29:23.282Z," 1520"
2017-09-19T16:34:19.000Z," 1428"
2017-09-19T16:39:14.642Z," 1320"
2017-09-19T16:44:10.205Z," 1204"
2017-09-19T16:49:08.445Z," 1084"
2017-09-19T16:54:03.571Z,"  956"
2017-09-19T16:59:01.282Z,"  808"
2017-09-19T17:03:56.559Z,"  684"
2017-09-19T17:08:53.357Z,"  572"
2017-09-19T17:13:48.829Z,"  460"
2017-09-19T17:18:44.563Z,"  352"
2017-09-19T17:23:41.072Z,"  260"
2017-09-19T17:28:37.908Z,"  180"
2017-09-19T17:33:35.206Z,"  116"
2017-09-19T17:38:30.358Z,"   72"
2017-09-19T17:43:26.948Z,"   40"
2017-09-19T17:48:22.835Z,"   20"
2017-09-19T17:53:18.370Z,"    8"
2017-09-19T17:58:16.565Z,"    4"
2017-09-19T18:03:13.549Z,"    0"
2017-09-19T18:08:10.316Z,"    0"
2017-09-19T18:13:05.847Z,"    0"
2017-09-19T18:18:01.962Z,"    0"
2017-09-19T18:22:59.458Z,"    0"
2017-09-19T18:27:55.567Z,"    0"
2017-09-19T18:32:53.120Z,"    0"
2017-09-19T18:37:49.206Z,"    0"
2017-09-19T18:42:46.165Z,"    0"
2017-09-19T18:47:41.776Z,"    0"
2017-09-19T18:52:37.496Z,"    0"
2017-09-19T18:57:34.433Z,"    0"
2017-09-19T19:02:30.105Z,"    0"
2017-09-19T19:07:25.974Z,"    0"
2017-09-19T19:12:21.689Z,"    0"
2017-09-19T19:17:17.563Z,"    0"
2017-09-19T19:22:15.463Z,"    0"
2017-09-19T19:27:11.568Z,"    0"
2017-09-19T19:32:07.080Z,"    0"
2017-09-19T19:37:02.897Z,"    0"
2017-09-19T19:41:59.806Z,"    0"
2017-09-19T19:46:55.383Z,"    0"
2017-09-19T19:51:50.950Z,"    0"
2017-09-19T19:56:46.594Z,"    0"
2017-09-19T20:01:43.276Z,"    0"
2017-09-19T20:06:38.645Z,"    0"
2017-09-19T20:11:36.351Z,"    0"
2017-09-19T20:16:31.854Z,"    0"
2017-09-19T20:21:27.748Z,"    0"
2017-09-19T20:26:23.550Z,"    0"
2017-09-19T20:31:19.415Z,"    0"
2017-09-19T20:36:16.193Z,"    0"
2017-09-19T20:41:12.722Z,"    0"
2017-09-19T20:46:08.097Z,"    0"
2017-09-19T20:51:04.480Z,"    0"
2017-09-19T20:56:01.126Z,"    0"
2017-09-19T21:00:56.970Z,"    0"
2017-09-19T21:05:53.592Z,"    0"
2017-09-19T21:10:49.116Z,"    0"
2017-09-19T21:15:44.828Z,"    0"
2017-09-19T21:20:40.616Z,"    0"
2017-09-19T21:25:36.290Z,"    0"
2017-09-19T21:30:32.069Z,"    0"
2017-09-19T21:35:27.842Z,"    0"
2017-09-19T21:40:23.720Z,"    0"
2017-09-19T21:45:19.689Z,"    0"
2017-09-19T21:50:15.336Z,"    0"
2017-09-19T21:55:11.982Z,"    0"
2017-09-19T22:00:07.789Z,"    0"
2017-09-19T22:05:03.528Z,"    0"
2017-09-19T22:09:59.391Z,"    0"
2017-09-19T22:14:55.207Z,"    0"
2017-09-19T22:19:52.155Z,"    0"
2017-09-19T22:24:48.792Z,"    0"
2017-09-19T22:29:44.385Z,"    0"
2017-09-19T22:34:39.991Z,"    0"
2017-09-19T22:39:35.845Z,"    0"
2017-09-19T22:44:31.762Z,"    0"
2017-09-19T22:49:28.640Z,"    0"
2017-09-19T22:54:24.091Z,"    0"
2017-09-19T22:59:20.264Z,"    0"
2017-09-19T23:04:16.024Z,"    0"
2017-09-19T23:09:12.148Z,"    0"
2017-09-19T23:14:09.144Z,"    0"
2017-09-19T23:19:04.735Z,"    0"
2017-09-19T23:24:00.509Z,"    0"
2017-09-19T23:28:56.315Z,"    0"
2017-09-19T23:33:51.879Z,"    0"
2017-09-19T23:38:47.531Z,"    0"
2017-09-19T23:43:43.880Z,"    0"
2017-09-19T23:48:39.269Z,"    0"
2017-09-19T23:53:36.129Z,"    0"
2017-09-19T23:58:31.345Z,"    0"
